Time;durP1;ratioP1;P1;durP2;ratioP2;P2;SDS_P1;SDS_P2;PMS_P1;PMS_P2;Temp;Humidity;BMP_temperature;BMP_pressure;BME280_temperature;BME280_humidity;BME280_pressure;Samples;Min_cycle;Max_cycle;Signal;HPM_P1;HPM_P2
2021/06/07 00:01:07;;;;;;;26.63;11.88;;;;;;;21.92;78.80;99888.09;5008545;28;20042;-65
2021/06/07 00:03:32;;;;;;;23.75;12.18;;;;;;;21.95;79.75;99884.94;5010531;28;20034;-65
2021/06/07 00:05:58;;;;;;;23.73;11.10;;;;;;;21.95;79.24;99894.91;5015975;28;20034;-65
2021/06/07 00:08:24;;;;;;;23.83;12.35;;;;;;;21.89;79.41;99887.75;5004993;28;20054;-65
2021/06/07 00:10:50;;;;;;;23.90;12.55;;;;;;;21.79;79.78;99895.53;5010373;28;20030;-65
2021/06/07 00:13:17;;;;;;;20.77;12.63;;;;;;;21.77;79.83;99897.66;5012703;28;20080;-65
2021/06/07 00:15:43;;;;;;;22.95;13.52;;;;;;;21.78;79.84;99892.03;5010572;28;20030;-65
2021/06/07 00:18:09;;;;;;;23.52;16.42;;;;;;;21.84;78.95;99883.00;5006452;28;20050;-65
2021/06/07 00:20:37;;;;;;;22.88;16.70;;;;;;;21.86;78.87;99885.50;5009714;28;20255;-65
2021/06/07 00:23:04;;;;;;;27.60;16.70;;;;;;;21.80;79.54;99889.91;4994119;28;20028;-65
2021/06/07 00:25:30;;;;;;;26.33;17.13;;;;;;;21.65;79.30;99876.06;5019514;28;20045;-65
2021/06/07 00:27:55;;;;;;;25.45;17.10;;;;;;;21.59;80.47;99885.91;5021747;28;20037;-65
2021/06/07 00:30:21;;;;;;;23.63;17.65;;;;;;;21.63;79.75;99884.38;5013723;28;20329;-65
2021/06/07 00:32:46;;;;;;;102.57;82.07;;;;;;;21.53;80.24;99888.69;5012464;28;20056;-65
2021/06/07 00:35:18;;;;;;;214.95;178.82;;;;;;;21.63;80.22;99888.94;5007810;28;20033;-65
2021/06/07 00:37:43;;;;;;;238.68;192.18;;;;;;;21.69;79.26;99888.03;5008999;28;20224;-65
2021/06/07 00:40:09;;;;;;;221.88;171.90;;;;;;;21.73;79.19;99878.44;5012645;28;20033;-65
2021/06/07 00:42:34;;;;;;;214.20;162.38;;;;;;;21.74;79.26;99876.56;5007877;28;20106;-65
2021/06/07 00:45:00;;;;;;;199.85;153.30;;;;;;;21.77;79.47;99876.91;5013377;28;20044;-65
2021/06/07 00:47:26;;;;;;;221.57;165.90;;;;;;;21.75;79.96;99881.72;5014300;28;20392;-65
2021/06/07 00:49:52;;;;;;;195.93;146.38;;;;;;;21.69;79.95;99874.56;5006574;28;20088;-65
2021/06/07 00:52:17;;;;;;;185.25;137.90;;;;;;;21.72;79.98;99871.41;5021342;28;20021;-65
2021/06/07 00:54:43;;;;;;;161.23;114.65;;;;;;;21.73;80.27;99872.22;5021739;28;20029;-65
2021/06/07 00:57:08;;;;;;;141.05;99.22;;;;;;;21.84;78.94;99874.94;5012358;28;20049;-65
2021/06/07 00:59:34;;;;;;;126.90;90.57;;;;;;;21.85;78.11;99871.22;5010855;28;20049;-65
2021/06/07 01:01:59;;;;;;;111.28;81.85;;;;;;;21.71;79.67;99864.38;5009808;28;20041;-65
2021/06/07 01:04:25;;;;;;;98.65;71.65;;;;;;;21.61;80.42;99873.00;5008909;28;20022;-65
2021/06/07 01:06:50;;;;;;;112.70;71.03;;;;;;;21.54;81.21;99871.47;5005270;28;20034;-65
2021/06/07 01:09:16;;;;;;;100.95;64.90;;;;;;;21.60;80.65;99857.91;5022027;28;20030;-65
2021/06/07 01:11:41;;;;;;;87.00;62.38;;;;;;;21.69;79.77;99869.16;5021872;28;20071;-65
2021/06/07 01:14:07;;;;;;;80.30;57.63;;;;;;;21.70;80.00;99870.81;5022093;28;20025;-65
2021/06/07 01:16:33;;;;;;;78.65;53.55;;;;;;;21.74;79.00;99868.47;5022245;28;20033;-65
2021/06/07 01:18:58;;;;;;;78.70;53.83;;;;;;;21.61;79.62;99859.53;5021798;28;20104;-65
2021/06/07 01:21:26;;;;;;;67.63;45.90;;;;;;;21.57;79.92;99871.81;5021066;28;20324;-65
2021/06/07 01:23:54;;;;;;;59.75;38.75;;;;;;;21.59;79.56;99868.91;5006737;28;20034;-65
2021/06/07 01:26:21;;;;;;;47.10;31.02;;;;;;;21.57;79.09;99866.44;5013689;28;20033;-65
2021/06/07 01:28:49;;;;;;;36.85;25.55;;;;;;;21.63;78.84;99860.13;5009592;28;20121;-65
2021/06/07 01:31:15;;;;;;;34.35;23.73;;;;;;;21.68;77.95;99870.22;5006757;28;20038;-65
2021/06/07 01:33:46;;;;;;;22.50;18.08;;;;;;;21.58;78.37;99868.09;5012095;28;20034;-65
2021/06/07 01:36:11;;;;;;;25.55;17.15;;;;;;;21.62;77.06;99866.56;5006231;28;20041;-65
2021/06/07 01:38:37;;;;;;;26.05;16.55;;;;;;;21.49;78.10;99863.25;5009291;28;20030;-65
2021/06/07 01:41:06;;;;;;;18.77;15.25;;;;;;;21.36;78.31;99861.56;5002410;28;20101;-65
2021/06/07 01:43:34;;;;;;;25.45;17.13;;;;;;;21.24;79.08;99869.63;5001663;28;20057;-65
2021/06/07 01:46:00;;;;;;;25.17;16.83;;;;;;;21.16;79.70;99869.09;5001061;28;20328;-65
2021/06/07 01:48:26;;;;;;;25.85;16.55;;;;;;;21.30;78.26;99867.88;5005465;28;20040;-65
2021/06/07 01:50:54;;;;;;;25.48;16.08;;;;;;;21.26;79.23;99875.59;5008649;28;20060;-65
2021/06/07 01:53:21;;;;;;;30.52;16.95;;;;;;;21.20;79.88;99875.66;5012694;28;20038;-65
2021/06/07 01:55:51;;;;;;;26.52;16.45;;;;;;;21.24;78.53;99872.31;5010854;28;20076;-65
2021/06/07 01:58:19;;;;;;;29.63;16.63;;;;;;;21.25;79.22;99879.34;5009236;28;20042;-65
2021/06/07 02:00:48;;;;;;;24.65;16.40;;;;;;;21.27;79.01;99876.41;4997652;28;20212;-65
2021/06/07 02:03:16;;;;;;;23.98;15.82;;;;;;;21.25;78.98;99871.25;5009767;28;20239;-65
2021/06/07 02:05:46;;;;;;;30.33;16.42;;;;;;;21.35;77.78;99878.78;5011542;28;20018;-65
2021/06/07 02:08:14;;;;;;;25.67;15.63;;;;;;;21.20;78.64;99865.72;5005970;28;20196;-65
2021/06/07 02:10:42;;;;;;;26.15;15.40;;;;;;;21.32;78.33;99880.06;5010293;28;20041;-65
2021/06/07 02:13:10;;;;;;;32.20;15.52;;;;;;;21.37;78.46;99875.88;5007400;28;20050;-65
2021/06/07 02:15:36;;;;;;;33.67;15.88;;;;;;;21.34;78.85;99877.97;5012827;28;20434;-65
2021/06/07 02:18:07;;;;;;;21.02;14.90;;;;;;;21.37;78.47;99882.06;5005909;28;20117;-65
2021/06/07 02:20:34;;;;;;;24.83;15.45;;;;;;;21.33;79.50;99886.28;5009246;28;20366;-65
2021/06/07 02:23:00;;;;;;;24.08;15.93;;;;;;;21.37;79.26;99890.16;5005921;28;20648;-65
2021/06/07 02:25:25;;;;;;;29.70;15.57;;;;;;;21.39;79.10;99884.53;5011480;28;20037;-65
2021/06/07 02:27:51;;;;;;;25.15;15.05;;;;;;;21.40;78.68;99872.72;5015834;28;20183;-65
2021/06/07 02:30:28;;;;;;;21.30;15.75;;;;;;;21.44;79.12;99873.91;5012014;28;20053;-65
2021/06/07 02:32:56;;;;;;;24.85;16.05;;;;;;;21.34;79.44;99871.75;5016912;28;20042;-65
2021/06/07 02:35:22;;;;;;;19.98;15.73;;;;;;;21.32;79.58;99869.28;5008576;28;20025;-65
2021/06/07 02:37:50;;;;;;;21.25;16.08;;;;;;;21.42;78.77;99871.44;5016302;28;20323;-65
2021/06/07 02:40:19;;;;;;;21.92;15.13;;;;;;;21.34;78.58;99861.00;5020968;28;20040;-65
2021/06/07 02:42:46;;;;;;;21.77;14.80;;;;;;;21.46;78.30;99885.28;5023769;28;20030;-65
2021/06/07 02:45:14;;;;;;;22.33;14.75;;;;;;;21.47;78.32;99885.03;5015089;28;20075;-65
2021/06/07 02:47:43;;;;;;;36.47;16.00;;;;;;;21.48;78.16;99877.78;5008778;28;20458;-65
2021/06/07 02:50:11;;;;;;;19.67;15.48;;;;;;;21.39;78.52;99881.84;5008663;28;20038;-65
2021/06/07 02:52:56;;;;;;;23.05;15.50;;;;;;;21.36;78.35;99883.13;5008467;28;20030;-65
2021/06/07 02:55:25;;;;;;;28.15;15.63;;;;;;;21.30;78.22;99887.56;5003824;28;20065;-65
2021/06/07 02:57:53;;;;;;;25.95;15.43;;;;;;;21.29;78.75;99885.09;5003755;28;20057;-65
2021/06/07 03:00:47;;;;;;;22.35;16.00;;;;;;;21.28;78.81;99883.44;5007729;28;20034;-65
2021/06/07 03:03:12;;;;;;;31.50;16.08;;;;;;;21.24;78.68;99882.25;5010686;28;20030;-65
2021/06/07 03:05:40;;;;;;;26.92;15.85;;;;;;;21.20;79.93;99881.03;5023437;28;20144;-65
2021/06/07 03:08:09;;;;;;;24.38;15.60;;;;;;;21.20;79.62;99871.09;5016603;28;20106;-65
2021/06/07 03:10:35;;;;;;;23.83;15.15;;;;;;;21.40;77.72;99883.50;5008370;28;20236;-65
2021/06/07 03:13:01;;;;;;;20.25;14.88;;;;;;;21.38;77.75;99881.03;4998840;28;20064;-65
2021/06/07 03:15:28;;;;;;;24.23;14.95;;;;;;;21.44;77.50;99885.50;5022773;28;20017;-65
2021/06/07 03:17:55;;;;;;;24.73;15.43;;;;;;;21.45;77.88;99883.63;5015278;28;20030;-65
2021/06/07 03:20:26;;;;;;;21.95;15.05;;;;;;;21.36;77.73;99877.75;5014010;28;20274;-65
2021/06/07 03:22:58;;;;;;;30.60;15.65;;;;;;;21.38;78.73;99896.38;5012180;28;20081;-65
2021/06/07 03:25:24;;;;;;;23.23;14.15;;;;;;;21.42;77.72;99890.28;5011311;28;20080;-65
2021/06/07 03:27:50;;;;;;;19.15;12.85;;;;;;;21.42;77.40;99892.97;5014722;28;20228;-65
2021/06/07 03:30:16;;;;;;;21.35;13.23;;;;;;;21.44;77.10;99896.28;5012288;28;20244;-65
2021/06/07 03:32:42;;;;;;;22.85;13.90;;;;;;;21.42;77.53;99889.47;5007257;28;20034;-65
2021/06/07 03:35:10;;;;;;;19.08;13.05;;;;;;;21.49;76.58;99895.59;5008030;28;20072;-65
2021/06/07 03:37:36;;;;;;;18.92;12.85;;;;;;;21.44;77.57;99900.84;5007301;28;20029;-65
2021/06/07 03:40:09;;;;;;;23.80;13.48;;;;;;;21.39;77.70;99901.53;5007018;28;20039;-65
2021/06/07 03:42:35;;;;;;;18.35;12.82;;;;;;;21.33;77.97;99905.13;5018416;28;20026;-65
2021/06/07 03:45:00;;;;;;;21.80;13.45;;;;;;;21.24;78.40;99901.94;5012867;28;20045;-65
2021/06/07 03:47:26;;;;;;;19.23;13.35;;;;;;;21.24;78.49;99906.50;5013581;28;20025;-65
2021/06/07 03:49:51;;;;;;;23.23;13.65;;;;;;;21.47;76.64;99906.59;5014156;28;20036;-65
2021/06/07 03:52:17;;;;;;;21.55;12.93;;;;;;;21.42;76.96;99901.06;5008941;28;20037;-65
2021/06/07 03:54:42;;;;;;;20.80;13.90;;;;;;;21.39;77.57;99900.69;5017890;28;20247;-65
2021/06/07 03:57:08;;;;;;;17.42;13.25;;;;;;;21.38;77.57;99910.66;5022258;28;20076;-65
2021/06/07 03:59:34;;;;;;;22.52;12.98;;;;;;;21.39;77.27;99906.91;5016422;28;20033;-65
2021/06/07 04:02:02;;;;;;;19.05;12.57;;;;;;;21.43;76.73;99908.09;5010256;28;20076;-65
2021/06/07 04:04:29;;;;;;;18.52;11.65;;;;;;;21.48;77.06;99913.63;5010867;28;20049;-65
2021/06/07 04:06:54;;;;;;;21.95;13.05;;;;;;;21.44;77.49;99912.44;5012311;28;20050;-65
2021/06/07 04:09:21;;;;;;;20.52;11.80;;;;;;;21.44;77.78;99917.81;5010742;28;20085;-65
2021/06/07 04:11:46;;;;;;;16.73;11.25;;;;;;;21.48;77.09;99916.31;5013453;28;20363;-65
2021/06/07 04:14:12;;;;;;;24.42;12.10;;;;;;;21.52;76.91;99916.69;5011909;28;20027;-65
2021/06/07 04:16:37;;;;;;;18.65;12.48;;;;;;;21.38;76.86;99910.66;5011123;28;20029;-65
2021/06/07 04:19:03;;;;;;;28.10;12.98;;;;;;;21.26;77.30;99907.09;5006395;28;20043;-65
2021/06/07 04:21:28;;;;;;;23.67;11.90;;;;;;;21.42;77.19;99911.03;5002537;28;20066;-65
2021/06/07 04:23:53;;;;;;;20.98;12.25;;;;;;;21.37;77.58;99905.50;5007253;28;20271;-65
2021/06/07 04:26:19;;;;;;;20.60;12.30;;;;;;;21.31;77.97;99910.75;5009790;28;20029;-65
2021/06/07 04:28:44;;;;;;;20.23;12.18;;;;;;;21.45;77.16;99916.78;5010314;28;20026;-65
2021/06/07 04:31:10;;;;;;;19.08;11.57;;;;;;;21.52;76.66;99919.38;5011163;28;20375;-65
2021/06/07 04:33:35;;;;;;;22.35;12.40;;;;;;;21.39;77.70;99919.56;5010464;28;20053;-65
2021/06/07 04:36:01;;;;;;;18.13;11.70;;;;;;;21.37;77.79;99910.88;5017655;28;20032;-65
2021/06/07 04:38:26;;;;;;;17.30;13.00;;;;;;;21.32;78.08;99915.09;5004414;28;20080;-65
2021/06/07 04:40:52;;;;;;;17.67;12.65;;;;;;;21.24;78.17;99915.41;5013372;28;20029;-65
2021/06/07 04:43:17;;;;;;;22.85;12.90;;;;;;;21.17;78.77;99921.88;5007322;28;20038;-65
2021/06/07 04:45:44;;;;;;;21.95;13.45;;;;;;;21.26;78.44;99926.75;5017943;28;20303;-65
2021/06/07 04:48:11;;;;;;;21.95;13.45;;;;;;;21.30;78.25;99929.81;5020856;28;20038;-65
2021/06/07 04:50:37;;;;;;;24.27;13.02;;;;;;;21.37;78.39;99927.88;5010372;28;20038;-65
2021/06/07 04:53:05;;;;;;;21.58;12.65;;;;;;;21.27;78.36;99928.41;5003172;28;20030;-65
2021/06/07 04:55:30;;;;;;;18.35;12.13;;;;;;;21.29;78.07;99936.25;5009247;28;20021;-65
2021/06/07 04:57:57;;;;;;;22.27;14.15;;;;;;;21.21;78.59;99931.97;5010726;28;20048;-65
2021/06/07 05:00:24;;;;;;;25.98;14.07;;;;;;;21.19;78.68;99933.25;5005891;28;20399;-65
2021/06/07 05:02:50;;;;;;;20.30;12.75;;;;;;;21.29;78.16;99930.88;5001865;28;20054;-65
2021/06/07 05:05:16;;;;;;;21.52;13.43;;;;;;;21.33;78.47;99930.19;4992092;28;20212;-65
2021/06/07 05:07:42;;;;;;;21.33;12.57;;;;;;;21.47;77.17;99930.84;5015637;28;20057;-65
2021/06/07 05:10:08;;;;;;;23.05;12.35;;;;;;;21.47;77.27;99938.91;5022162;28;20029;-65
2021/06/07 05:12:34;;;;;;;19.67;12.55;;;;;;;21.50;77.79;99934.94;5022322;28;20034;-65
2021/06/07 05:15:01;;;;;;;24.08;12.60;;;;;;;21.52;76.80;99940.94;5022289;28;20040;-65
2021/06/07 05:17:26;;;;;;;15.70;11.57;;;;;;;21.53;75.98;99945.25;5022361;28;20040;-65
2021/06/07 05:19:52;;;;;;;19.65;12.73;;;;;;;21.58;75.85;99943.53;5011736;28;20038;-65
2021/06/07 05:22:17;;;;;;;15.38;11.80;;;;;;;21.63;74.92;99943.66;5009273;28;20354;-65
2021/06/07 05:24:43;;;;;;;15.25;11.73;;;;;;;21.79;74.80;99942.19;5010272;28;20022;-65
2021/06/07 05:27:09;;;;;;;22.65;12.43;;;;;;;21.76;74.89;99945.34;5011436;28;20041;-65
2021/06/07 05:29:35;;;;;;;20.77;12.60;;;;;;;21.68;75.75;99951.06;5010033;28;20065;-65
2021/06/07 05:32:00;;;;;;;14.90;11.77;;;;;;;21.77;75.39;99951.56;5011140;28;20041;-65
2021/06/07 05:34:25;;;;;;;18.95;12.13;;;;;;;21.75;76.34;99954.47;5013223;28;20057;-65
2021/06/07 05:36:51;;;;;;;21.92;11.23;;;;;;;21.81;75.63;99958.13;5010119;28;20034;-65
2021/06/07 05:39:19;;;;;;;19.40;13.00;;;;;;;21.88;75.76;99953.50;5008747;28;20057;-65
2021/06/07 05:41:46;;;;;;;16.58;12.13;;;;;;;21.95;75.67;99949.63;5013787;28;20073;-65
2021/06/07 05:44:11;;;;;;;21.85;12.25;;;;;;;22.12;74.69;99957.09;5001532;28;20049;-65
2021/06/07 05:46:37;;;;;;;18.67;11.35;;;;;;;22.21;73.63;99953.00;5009015;28;20076;-65
2021/06/07 05:49:02;;;;;;;24.33;12.10;;;;;;;22.24;73.37;99956.06;5006786;28;20041;-65
2021/06/07 05:51:28;;;;;;;18.05;11.55;;;;;;;22.25;73.01;99951.47;5006110;28;20219;-65
2021/06/07 05:53:53;;;;;;;17.35;11.18;;;;;;;22.19;73.66;99955.09;5008255;28;20362;-65
2021/06/07 05:56:18;;;;;;;20.27;10.98;;;;;;;22.28;73.15;99959.09;5013897;28;20050;-65
2021/06/07 05:58:44;;;;;;;16.67;12.13;;;;;;;22.26;72.65;99953.13;5010561;28;20042;-65
2021/06/07 06:01:09;;;;;;;23.55;12.27;;;;;;;22.25;73.28;99955.00;5013349;28;20048;-65
2021/06/07 06:03:35;;;;;;;16.83;12.63;;;;;;;22.22;73.69;99951.94;5005872;28;20334;-65
2021/06/07 06:06:00;;;;;;;15.27;11.70;;;;;;;22.21;73.47;99955.69;5012640;28;20087;-65
2021/06/07 06:08:26;;;;;;;23.65;11.60;;;;;;;22.22;73.31;99957.34;5019255;28;20041;-65
2021/06/07 06:10:51;;;;;;;14.82;11.18;;;;;;;22.28;72.96;99962.63;5016654;28;20053;-65
2021/06/07 06:13:17;;;;;;;16.63;12.20;;;;;;;22.27;72.80;99960.16;5017517;28;20041;-65
2021/06/07 06:15:42;;;;;;;20.23;12.32;;;;;;;22.23;73.42;99962.50;5017158;28;20088;-65
2021/06/07 06:18:07;;;;;;;17.95;11.55;;;;;;;22.26;73.53;99967.44;5017639;28;20034;-65
2021/06/07 06:20:33;;;;;;;20.85;12.57;;;;;;;22.32;73.19;99970.25;5025307;28;20044;-65
2021/06/07 06:22:59;;;;;;;15.73;11.75;;;;;;;22.36;72.50;99960.63;5039746;28;20124;-65
2021/06/07 06:25:25;;;;;;;18.92;12.00;;;;;;;22.35;72.21;99961.69;5042950;28;20037;-65
2021/06/07 06:27:51;;;;;;;15.70;11.68;;;;;;;22.34;73.06;99962.75;5029634;28;20103;-65
2021/06/07 06:30:23;;;;;;;15.95;11.70;;;;;;;22.27;72.54;99936.69;5024979;28;20033;-65
2021/06/07 06:32:51;;;;;;;18.55;12.10;;;;;;;22.45;72.52;99964.63;5032451;28;20092;-65
2021/06/07 06:35:17;;;;;;;18.25;12.80;;;;;;;22.41;73.21;99966.16;5042499;28;20029;-65
2021/06/07 06:37:44;;;;;;;17.35;12.27;;;;;;;22.46;72.94;99963.56;5015785;28;20358;-65
2021/06/07 06:40:14;;;;;;;17.67;13.23;;;;;;;22.52;72.61;99962.63;5026818;28;20037;-65
2021/06/07 06:42:39;;;;;;;18.08;12.88;;;;;;;22.43;72.72;99961.34;5030298;28;20091;-65
2021/06/07 06:45:06;;;;;;;18.15;12.65;;;;;;;22.48;71.90;99964.16;5042222;28;20331;-65
2021/06/07 06:47:32;;;;;;;17.83;13.27;;;;;;;22.45;72.48;99961.94;5036727;28;20021;-65
2021/06/07 06:49:58;;;;;;;17.33;12.48;;;;;;;22.46;73.12;99956.28;5027632;28;20044;-65
2021/06/07 06:52:25;;;;;;;20.27;12.60;;;;;;;22.53;72.41;99956.19;5023209;28;20026;-65
2021/06/07 06:54:50;;;;;;;22.85;13.25;;;;;;;22.62;72.31;99958.28;5025462;28;20140;-65
2021/06/07 06:57:16;;;;;;;18.23;11.90;;;;;;;22.69;70.82;99955.47;5025693;28;20334;-65
2021/06/07 06:59:41;;;;;;;20.80;12.88;;;;;;;22.62;72.09;99961.00;5025802;28;20033;-65
2021/06/07 07:02:07;;;;;;;23.15;12.73;;;;;;;22.68;72.41;99959.22;5023804;28;20048;-65
2021/06/07 07:04:32;;;;;;;16.50;12.35;;;;;;;22.72;70.83;99965.78;5026787;28;20052;-65
2021/06/07 07:06:57;;;;;;;16.60;11.63;;;;;;;22.96;69.27;99972.06;5023211;28;20070;-65
2021/06/07 07:09:23;;;;;;;18.92;12.95;;;;;;;22.97;69.52;99970.16;5027448;28;20033;-65
2021/06/07 07:11:50;;;;;;;16.92;11.52;;;;;;;23.10;69.41;99968.03;5023590;28;20022;-65
2021/06/07 07:14:15;;;;;;;13.43;11.63;;;;;;;23.21;68.47;99961.78;5024651;28;20092;-65
2021/06/07 07:16:41;;;;;;;18.35;12.70;;;;;;;23.22;68.89;99962.59;5025359;28;20807;-65
2021/06/07 07:19:07;;;;;;;17.33;11.88;;;;;;;23.15;68.73;99970.84;5021996;28;20042;-65
2021/06/07 07:21:33;;;;;;;14.98;11.07;;;;;;;23.19;67.65;99973.88;5015680;28;20092;-65
2021/06/07 07:23:58;;;;;;;14.98;11.10;;;;;;;23.33;67.33;99971.72;5005949;28;20030;-65
2021/06/07 07:26:24;;;;;;;18.08;11.80;;;;;;;23.46;67.84;99974.16;5016162;28;20032;-65
2021/06/07 07:28:49;;;;;;;18.98;11.32;;;;;;;23.51;66.92;99968.84;5007141;28;20049;-65
2021/06/07 07:31:15;;;;;;;17.88;11.68;;;;;;;23.45;67.88;99970.63;5017130;28;20049;-65
2021/06/07 07:33:44;;;;;;;16.42;12.48;;;;;;;23.46;67.39;99983.06;5014766;28;20041;-65
2021/06/07 07:36:15;;;;;;;17.23;12.25;;;;;;;23.06;68.63;99977.66;5015455;28;20349;-65
2021/06/07 07:38:41;;;;;;;15.65;11.95;;;;;;;22.93;69.54;99975.22;5016396;28;20038;-65
2021/06/07 07:41:07;;;;;;;19.08;13.43;;;;;;;22.90;71.10;99973.00;5017059;28;20025;-65
2021/06/07 07:43:33;;;;;;;24.25;13.85;;;;;;;22.89;69.91;99974.88;5015273;28;20105;-65
2021/06/07 07:45:59;;;;;;;21.73;13.80;;;;;;;22.61;70.65;99975.53;5013765;28;20071;-65
2021/06/07 07:48:25;;;;;;;22.73;13.63;;;;;;;22.78;70.99;99975.66;5014469;28;20033;-65
2021/06/07 07:50:50;;;;;;;16.42;13.00;;;;;;;22.83;69.76;99978.50;5016800;28;20029;-65
2021/06/07 07:53:16;;;;;;;18.52;13.35;;;;;;;23.01;70.34;99979.44;5018755;28;20057;-65
2021/06/07 07:55:42;;;;;;;17.42;13.25;;;;;;;23.14;67.80;99980.00;5021363;28;20025;-65
2021/06/07 07:58:11;;;;;;;19.27;14.20;;;;;;;23.33;67.90;99972.53;5016612;28;20107;-65
2021/06/07 08:00:38;;;;;;;19.02;12.90;;;;;;;22.89;68.15;99977.56;5016856;28;20021;-65
2021/06/07 08:03:04;;;;;;;21.30;14.98;;;;;;;22.60;69.65;99973.06;5017479;28;20045;-65
2021/06/07 08:05:30;;;;;;;18.05;12.63;;;;;;;22.86;68.22;99975.31;5014966;28;20022;-65
2021/06/07 08:07:56;;;;;;;16.13;12.90;;;;;;;22.90;68.04;99976.53;5015259;28;20046;-65
2021/06/07 08:10:21;;;;;;;17.45;12.30;;;;;;;22.87;66.60;99962.66;5020441;28;20037;-65
2021/06/07 08:12:47;;;;;;;22.00;12.35;;;;;;;23.19;67.28;99977.41;5021336;28;20304;-65
2021/06/07 08:15:14;;;;;;;14.52;11.27;;;;;;;23.40;63.15;99986.75;5014355;28;20029;-65
2021/06/07 08:17:40;;;;;;;15.23;12.80;;;;;;;23.47;62.77;99982.00;5016303;28;20185;-65
2021/06/07 08:20:13;;;;;;;19.27;13.60;;;;;;;23.67;61.93;99986.19;5022414;28;20039;-65
2021/06/07 08:22:39;;;;;;;18.33;13.57;;;;;;;23.79;64.00;99986.97;5009598;28;20088;-65
2021/06/07 08:25:05;;;;;;;19.35;13.52;;;;;;;23.86;64.40;99988.47;5040694;28;20354;-65
2021/06/07 08:27:31;;;;;;;23.30;13.88;;;;;;;23.52;64.94;99979.41;5033470;28;20362;-65
2021/06/07 08:29:56;;;;;;;21.52;14.27;;;;;;;23.36;66.05;99987.47;5025997;28;20112;-65
2021/06/07 08:32:22;;;;;;;18.20;15.52;;;;;;;23.02;68.06;99987.31;5036736;28;20089;-65
2021/06/07 08:34:48;;;;;;;22.55;14.73;;;;;;;23.02;68.12;99991.88;5040114;28;20043;-65
2021/06/07 08:37:14;;;;;;;22.45;14.30;;;;;;;23.18;67.07;99991.16;5024179;28;20032;-65
2021/06/07 08:39:40;;;;;;;21.27;14.75;;;;;;;23.22;69.14;99989.63;5025589;28;20104;-65
2021/06/07 08:42:06;;;;;;;17.58;13.65;;;;;;;23.28;68.10;99994.06;5024939;28;20034;-65
2021/06/07 08:44:32;;;;;;;21.65;15.07;;;;;;;23.13;69.26;99999.97;5022865;28;20104;-64
2021/06/07 08:46:57;;;;;;;21.52;15.52;;;;;;;22.89;70.04;99991.06;5023721;28;20195;-64
2021/06/07 08:49:23;;;;;;;18.50;14.30;;;;;;;22.80;72.13;99980.84;5022405;28;20061;-64
2021/06/07 08:51:50;;;;;;;19.63;15.85;;;;;;;22.59;74.60;99990.31;5022785;28;20370;-64
2021/06/07 08:54:15;;;;;;;21.42;15.40;;;;;;;22.54;72.12;99992.91;5021743;28;20033;-64
2021/06/07 08:56:43;;;;;;;18.70;15.13;;;;;;;22.61;73.60;99986.34;5025416;28;20089;-64
2021/06/07 08:59:09;;;;;;;18.23;13.73;;;;;;;22.76;71.43;99996.66;5024042;28;20049;-64
2021/06/07 09:01:34;;;;;;;24.20;15.63;;;;;;;22.85;74.12;99989.88;5030900;28;20048;-64
2021/06/07 09:04:12;;;;;;;20.85;14.77;;;;;;;22.95;75.38;99992.00;5039403;28;20040;-64
2021/06/07 09:06:39;;;;;;;18.35;15.20;;;;;;;22.91;74.89;99988.97;5038379;28;20075;-64
2021/06/07 09:09:07;;;;;;;17.60;14.75;;;;;;;22.79;74.90;99981.88;5037922;28;20079;-64
2021/06/07 09:11:56;;;;;;;19.48;15.70;;;;;;;22.87;75.60;99973.44;5038966;28;20088;-64
2021/06/07 09:14:25;;;;;;;19.00;15.13;;;;;;;22.80;74.90;99978.97;5038938;28;20057;-64
2021/06/07 09:16:52;;;;;;;18.55;14.45;;;;;;;22.84;73.80;99976.63;5039087;28;20029;-64
2021/06/07 09:19:23;;;;;;;22.10;14.23;;;;;;;22.83;74.38;99972.28;5032960;28;20045;-64
2021/06/07 09:21:50;;;;;;;24.02;14.98;;;;;;;22.84;75.54;99980.13;5021299;28;20040;-64
2021/06/07 09:24:16;;;;;;;24.27;15.68;;;;;;;22.81;74.26;99972.50;5022970;28;20029;-64
2021/06/07 09:26:44;;;;;;;24.20;14.40;;;;;;;22.92;72.08;99971.72;5021357;28;20044;-64
2021/06/07 09:29:19;;;;;;;19.63;14.77;;;;;;;23.02;73.22;99959.47;5021472;28;20034;-64
2021/06/07 09:31:50;;;;;;;21.27;14.68;;;;;;;22.99;74.90;99968.88;5022092;28;20040;-64
2021/06/07 09:34:30;;;;;;;20.65;14.70;;;;;;;22.91;75.36;99961.97;5024480;28;20030;-64
2021/06/07 09:37:05;;;;;;;21.52;16.13;;;;;;;22.96;74.86;99961.25;5026793;28;20033;-64
2021/06/07 09:39:31;;;;;;;17.33;14.60;;;;;;;22.90;72.07;99954.09;5039150;28;20068;-64
2021/06/07 09:42:09;;;;;;;19.85;14.73;;;;;;;22.95;73.03;99962.31;5026663;28;20033;-64
2021/06/07 09:44:37;;;;;;;23.25;15.48;;;;;;;22.97;72.82;99954.78;5026130;28;20037;-64
2021/06/07 09:47:35;;;;;;;23.75;16.10;;;;;;;23.14;74.04;99954.88;5024855;28;20073;-64
2021/06/07 09:50:05;;;;;;;22.73;14.80;;;;;;;23.21;71.63;99956.38;5023775;28;20393;-64
2021/06/07 09:52:43;;;;;;;21.38;14.88;;;;;;;23.25;69.73;99954.00;5025025;28;20053;-64
2021/06/07 09:55:21;;;;;;;22.45;16.05;;;;;;;23.30;73.71;99953.28;5024951;28;20041;-64
2021/06/07 09:57:48;;;;;;;20.02;14.98;;;;;;;23.34;71.67;99944.47;5024926;28;20055;-64
2021/06/07 10:00:40;;;;;;;22.33;15.18;;;;;;;23.37;72.22;99946.69;5024686;28;20108;-64
2021/06/07 10:03:29;;;;;;;19.75;14.80;;;;;;;23.39;71.33;99943.75;5024838;28;20030;-64
2021/06/07 10:05:58;;;;;;;23.98;16.17;;;;;;;23.40;71.40;99935.41;5024900;28;20093;-64
2021/06/07 10:08:26;;;;;;;19.08;14.80;;;;;;;23.47;71.29;99941.47;5024318;28;20041;-64
2021/06/07 10:10:54;;;;;;;18.90;16.27;;;;;;;23.28;71.40;99944.59;5024635;28;20366;-64
2021/06/07 10:13:20;;;;;;;20.58;14.90;;;;;;;23.40;74.02;99932.69;5024455;28;20040;-64
2021/06/07 10:15:48;;;;;;;19.70;14.73;;;;;;;23.59;71.34;99933.34;5024435;28;20080;-64
2021/06/07 10:18:22;;;;;;;22.08;15.60;;;;;;;23.66;71.62;99931.31;5024943;28;20033;-64
2021/06/07 10:20:50;;;;;;;20.20;14.82;;;;;;;23.94;69.60;99930.47;5042605;28;20033;-64
2021/06/07 10:23:28;;;;;;;18.48;15.02;;;;;;;23.87;66.76;99924.38;5043095;28;20571;-64
2021/06/07 10:25:57;;;;;;;22.02;14.75;;;;;;;23.81;68.51;99925.34;5040843;28;20029;-64
2021/06/07 10:28:29;;;;;;;19.52;16.00;;;;;;;23.72;69.38;99918.72;5032030;28;20328;-64
2021/06/07 10:30:56;;;;;;;18.30;15.18;;;;;;;23.82;67.88;99927.00;5027796;28;20049;-64
2021/06/07 10:33:23;;;;;;;20.10;14.27;;;;;;;23.96;66.76;99914.00;5026284;28;20041;-64
2021/06/07 10:35:49;;;;;;;16.85;13.15;;;;;;;23.89;64.88;99906.84;5021736;28;20072;-64
2021/06/07 10:38:28;;;;;;;17.05;12.45;;;;;;;24.18;65.32;99915.72;5025306;28;20320;-64
2021/06/07 10:41:22;;;;;;;15.63;12.00;;;;;;;23.96;64.29;99919.41;5026927;28;20037;-64
2021/06/07 10:43:58;;;;;;;15.85;12.50;;;;;;;23.99;64.98;99914.34;5026803;28;20028;-64
2021/06/07 10:46:31;;;;;;;18.67;13.40;;;;;;;24.03;64.83;99920.88;5024584;28;20053;-64
2021/06/07 10:49:00;;;;;;;16.55;11.77;;;;;;;23.86;63.92;99877.59;5026158;28;20056;-64
2021/06/07 10:51:31;;;;;;;18.50;11.80;;;;;;;24.20;62.68;99920.88;5027012;28;20049;-64
2021/06/07 10:54:32;;;;;;;12.52;11.00;;;;;;;24.10;62.24;99916.13;5027140;28;20320;-64
2021/06/07 10:57:30;;;;;;;15.43;11.85;;;;;;;24.00;62.95;99902.44;5025020;28;20041;-64
2021/06/07 10:59:56;;;;;;;16.05;12.10;;;;;;;24.09;62.71;99905.56;4995890;28;20041;-64
2021/06/07 11:02:23;;;;;;;17.88;12.70;;;;;;;23.76;64.26;99909.88;5025060;28;20525;-64
2021/06/07 11:05:04;;;;;;;14.85;11.77;;;;;;;23.94;64.24;99910.72;5026039;28;20037;-64
2021/06/07 11:07:29;;;;;;;16.55;11.30;;;;;;;24.03;64.14;99911.97;5023947;28;20025;-64
2021/06/07 11:10:16;;;;;;;22.73;11.25;;;;;;;24.15;62.17;99916.22;5026202;28;20154;-64
2021/06/07 11:12:43;;;;;;;13.57;10.77;;;;;;;24.19;63.24;99908.44;5023663;28;20033;-64
2021/06/07 11:15:20;;;;;;;15.57;10.95;;;;;;;24.13;61.58;99914.81;5026521;28;20409;-64
2021/06/07 11:17:46;;;;;;;13.73;10.65;;;;;;;24.22;61.57;99907.94;5028841;28;20268;-64
2021/06/07 11:20:13;;;;;;;14.70;11.07;;;;;;;24.37;60.66;99916.31;5022805;28;20339;-64